createdAt,value
2023-04-11T00:00:54.962Z,18.12
2023-04-11T00:05:57.431Z,18.11
2023-04-11T00:11:00.147Z,17.95
2023-04-11T00:16:03.790Z,17.90
2023-04-11T00:21:12.523Z,17.71
2023-04-11T00:26:15.852Z,17.58
2023-04-11T00:31:18.538Z,17.38
2023-04-11T00:36:21.467Z,17.20
2023-04-11T00:41:24.647Z,17.15
2023-04-11T00:46:28.715Z,17.06
2023-04-11T00:51:31.048Z,16.87
2023-04-11T00:56:34.410Z,16.87
2023-04-11T01:01:38.978Z,16.84
2023-04-11T01:06:41.949Z,16.68
2023-04-11T01:11:44.394Z,16.81
2023-04-11T01:16:48.639Z,16.73
2023-04-11T01:21:51.717Z,16.54
2023-04-11T01:26:55.103Z,16.60
2023-04-11T01:31:57.722Z,16.62
2023-04-11T01:37:01.239Z,16.41
2023-04-11T01:42:05.042Z,16.18
2023-04-11T01:47:08.889Z,16.04
2023-04-11T01:52:11.413Z,16.03
2023-04-11T01:57:14.370Z,15.75
2023-04-11T02:02:16.915Z,15.75
2023-04-11T02:07:21.196Z,15.56
2023-04-11T02:12:34.809Z,15.45
2023-04-11T02:17:37.120Z,15.25
2023-04-11T02:22:39.550Z,15.18
2023-04-11T02:27:41.782Z,15.05
2023-04-11T02:32:44.040Z,14.94
2023-04-11T02:37:46.554Z,14.94
2023-04-11T02:42:49.236Z,14.92
2023-04-11T02:47:52.396Z,14.84
2023-04-11T02:52:54.990Z,14.76
2023-04-11T02:58:01.289Z,14.68
2023-04-11T03:03:05.641Z,14.56
2023-04-11T03:08:13.992Z,14.57
2023-04-11T03:13:23.600Z,14.40
2023-04-11T03:18:31.174Z,14.37
2023-04-11T03:23:37.009Z,14.23
2023-04-11T03:28:39.211Z,14.34
2023-04-11T03:33:41.794Z,14.11
2023-04-11T03:38:44.872Z,14.10
2023-04-11T03:43:47.197Z,13.97
2023-04-11T03:48:50.285Z,13.88
2023-04-11T03:53:54.318Z,13.89
2023-04-11T03:59:04.476Z,13.95
2023-04-11T04:04:25.173Z,13.93
2023-04-11T04:09:41.610Z,13.75
2023-04-11T04:14:45.381Z,13.66
2023-04-11T04:19:51.816Z,13.70
2023-04-11T04:25:00.213Z,13.62
2023-04-11T04:30:07.629Z,13.67
2023-04-11T04:35:29.965Z,13.60
2023-04-11T04:40:40.304Z,13.36
2023-04-11T04:45:45.602Z,13.52
2023-04-11T04:50:53.432Z,13.56
2023-04-11T04:55:56.661Z,13.44
2023-04-11T05:01:04.588Z,13.42
2023-04-11T05:06:15.731Z,13.28
2023-04-11T05:11:23.440Z,13.31
2023-04-11T05:16:27.132Z,13.30
2023-04-11T05:21:29.385Z,13.25
2023-04-11T05:26:32.011Z,13.08
2023-04-11T05:31:35.303Z,13.04
2023-04-11T05:36:38.718Z,13.02
2023-04-11T05:41:41.115Z,13.05
2023-04-11T05:46:44.982Z,13.01
2023-04-11T05:51:47.990Z,12.85
2023-04-11T05:56:50.392Z,12.88
2023-04-11T06:01:57.051Z,12.54
2023-04-11T06:06:59.806Z,12.64
2023-04-11T06:12:02.118Z,12.59
2023-04-11T06:17:04.241Z,12.58
2023-04-11T06:22:07.681Z,12.61
2023-04-11T06:27:10.960Z,12.59
2023-04-11T06:32:13.593Z,12.61
2023-04-11T06:37:16.023Z,12.69
2023-04-11T06:42:41.917Z,12.74
2023-04-11T06:47:45.227Z,12.76
2023-04-11T06:52:47.444Z,12.87
2023-04-11T06:57:49.583Z,12.94
2023-04-11T07:02:53.016Z,12.92
2023-04-11T07:07:56.556Z,13.04
2023-04-11T07:13:00.126Z,13.17
2023-04-11T07:18:02.872Z,13.33
2023-04-11T07:23:06.432Z,13.83
2023-04-11T07:28:08.776Z,13.81
2023-04-11T07:33:11.481Z,13.94
2023-04-11T07:38:14.498Z,14.07
2023-04-11T07:43:16.961Z,14.24
2023-04-11T07:48:21.835Z,14.41
2023-04-11T07:53:27.476Z,14.62
2023-04-11T07:58:30.363Z,14.88
2023-04-11T08:03:32.913Z,15.08
2023-04-11T08:08:35.445Z,15.34
2023-04-11T08:13:38.996Z,15.59
2023-04-11T08:18:45.953Z,15.76
2023-04-11T08:23:48.247Z,15.99
2023-04-11T08:28:50.480Z,16.16
2023-04-11T08:33:52.770Z,16.54
2023-04-11T08:39:26.366Z,16.99
2023-04-11T08:44:36.495Z,17.37
2023-04-11T08:49:38.937Z,17.82
2023-04-11T08:54:43.484Z,18.78
2023-04-11T08:59:52.818Z,19.93
2023-04-11T09:04:57.925Z,20.63
2023-04-11T09:10:29.524Z,21.79
2023-04-11T09:15:44.700Z,22.52
2023-04-11T09:20:59.511Z,23.96
2023-04-11T09:26:02.227Z,24.49
2023-04-11T09:31:06.435Z,24.20
2023-04-11T09:36:27.411Z,24.12
2023-04-11T09:41:34.857Z,24.48
2023-04-11T09:46:37.926Z,24.63
2023-04-11T09:51:43.789Z,24.93
2023-04-11T09:56:52.046Z,25.10
2023-04-11T10:01:54.798Z,25.40
2023-04-11T10:07:14.684Z,25.17
2023-04-11T10:12:33.141Z,25.95
2023-04-11T10:17:37.020Z,26.76
2023-04-11T10:22:44.095Z,26.96
2023-04-11T10:27:50.486Z,26.76
2023-04-11T10:33:14.806Z,26.91
2023-04-11T10:38:43.694Z,27.20
2023-04-11T10:43:47.153Z,27.43
2023-04-11T10:49:06.521Z,27.42
2023-04-11T10:54:25.879Z,27.41
2023-04-11T10:59:34.610Z,27.44
2023-04-11T11:04:38.012Z,27.86
2023-04-11T11:09:40.631Z,27.79
2023-04-11T11:14:46.841Z,27.85
2023-04-11T11:19:49.108Z,28.09
2023-04-11T11:24:51.087Z,28.38
2023-04-11T11:29:53.938Z,28.46
2023-04-11T11:35:13.514Z,28.10
2023-04-11T11:40:17.411Z,28.16
2023-04-11T11:45:21.556Z,27.20
2023-04-11T11:50:33.806Z,27.24
2023-04-11T11:55:38.165Z,26.78
2023-04-11T12:00:41.720Z,26.59
2023-04-11T12:05:54.412Z,26.36
2023-04-11T12:10:58.303Z,26.36
2023-04-11T12:16:02.352Z,26.03
2023-04-11T12:21:11.150Z,25.69
2023-04-11T12:26:13.972Z,25.65
2023-04-11T12:31:16.822Z,25.54
2023-04-11T12:36:18.891Z,25.66
2023-04-11T12:41:32.395Z,25.41
2023-04-11T12:46:34.979Z,25.51
2023-04-11T12:51:37.924Z,25.44
2023-04-11T12:56:41.071Z,25.51
2023-04-11T13:01:44.368Z,25.37
2023-04-11T13:06:47.893Z,25.38
2023-04-11T13:11:54.893Z,25.23
2023-04-11T13:16:58.562Z,25.30
2023-04-11T13:22:01.833Z,25.34
2023-04-11T13:27:17.042Z,25.22
2023-04-11T13:32:21.308Z,25.15
2023-04-11T13:37:23.546Z,25.01
2023-04-11T13:42:26.232Z,24.91
2023-04-11T13:47:28.292Z,25.05
2023-04-11T13:52:30.585Z,25.06
2023-04-11T13:57:33.517Z,25.08
2023-04-11T14:02:35.840Z,25.21
2023-04-11T14:07:38.300Z,25.28
2023-04-11T14:12:40.566Z,25.40
2023-04-11T14:17:44.338Z,25.33
2023-04-11T14:22:46.784Z,25.09
2023-04-11T14:27:49.313Z,25.30
2023-04-11T14:32:51.696Z,25.31
2023-04-11T14:37:53.804Z,25.21
2023-04-11T14:42:59.217Z,25.31
2023-04-11T14:48:01.521Z,25.35
2023-04-11T14:53:03.950Z,25.25
2023-04-11T14:58:07.311Z,25.41
2023-04-11T15:03:10.033Z,25.45
2023-04-11T15:08:13.033Z,25.35
2023-04-11T15:13:15.490Z,25.31
2023-04-11T15:18:29.404Z,25.37
2023-04-11T15:23:32.124Z,25.35
2023-04-11T15:28:36.343Z,25.41
2023-04-11T15:33:39.285Z,25.47
2023-04-11T15:38:41.458Z,25.31
2023-04-11T15:43:44.574Z,25.38
2023-04-11T15:48:47.834Z,25.29
2023-04-11T15:53:50.713Z,25.37
2023-04-11T15:58:52.753Z,25.41
2023-04-11T16:03:55.433Z,25.26
2023-04-11T16:08:57.681Z,25.36
2023-04-11T16:14:00.658Z,25.33
2023-04-11T16:19:03.743Z,25.30
2023-04-11T16:24:13.576Z,25.28
2023-04-11T16:29:16.433Z,25.27
2023-04-11T16:34:18.859Z,25.28
2023-04-11T16:39:20.985Z,25.22
2023-04-11T16:44:23.566Z,25.09
2023-04-11T16:49:29.263Z,25.03
2023-04-11T16:54:45.565Z,24.92
2023-04-11T16:59:47.794Z,24.86
2023-04-11T17:04:50.350Z,24.79
2023-04-11T17:09:53.438Z,24.74
2023-04-11T17:15:02.144Z,24.61
2023-04-11T17:20:15.363Z,24.55
2023-04-11T17:25:17.917Z,24.52
2023-04-11T17:30:20.948Z,24.45
2023-04-11T17:35:25.266Z,24.28
2023-04-11T17:40:27.504Z,24.05
2023-04-11T17:45:36.288Z,24.01
2023-04-11T17:50:38.639Z,24.06
2023-04-11T17:55:41.008Z,23.86
2023-04-11T18:00:55.747Z,23.73
2023-04-11T18:06:00.096Z,23.64
2023-04-11T18:11:03.856Z,23.56
2023-04-11T18:16:08.247Z,23.48
2023-04-11T18:21:11.342Z,23.31
2023-04-11T18:26:13.891Z,23.07
2023-04-11T18:31:16.635Z,23.08
2023-04-11T18:36:22.963Z,23.04
2023-04-11T18:41:25.959Z,22.93
2023-04-11T18:46:28.489Z,22.76
2023-04-11T18:51:31.113Z,22.76
2023-04-11T18:56:34.251Z,22.64
2023-04-11T19:01:37.387Z,22.55
2023-04-11T19:06:39.844Z,22.44
2023-04-11T19:11:42.226Z,22.29
2023-04-11T19:16:47.026Z,22.25
2023-04-11T19:21:49.418Z,22.09
2023-04-11T19:26:53.012Z,22.07
2023-04-11T19:31:55.315Z,22.00
2023-04-11T19:36:57.824Z,21.81
2023-04-11T19:42:00.568Z,21.78
2023-04-11T19:47:03.454Z,21.69
2023-04-11T19:52:06.474Z,21.51
2023-04-11T19:57:09.566Z,21.46
2023-04-11T20:02:12.677Z,21.45
2023-04-11T20:07:15.137Z,21.27
2023-04-11T20:12:17.685Z,21.23
2023-04-11T20:17:20.187Z,21.12
2023-04-11T20:22:24.595Z,21.03
2023-04-11T20:27:28.372Z,20.97
2023-04-11T20:32:31.679Z,20.90
2023-04-11T20:37:34.834Z,20.71
2023-04-11T20:42:46.161Z,20.67
2023-04-11T20:47:50.134Z,20.63
2023-04-11T20:52:53.152Z,20.53
2023-04-11T20:57:56.645Z,20.43
2023-04-11T21:02:58.963Z,20.37
2023-04-11T21:08:05.527Z,20.31
2023-04-11T21:13:09.284Z,20.17
2023-04-11T21:18:19.033Z,20.09
2023-04-11T21:23:32.646Z,19.93
2023-04-11T21:28:35.378Z,19.83
2023-04-11T21:33:38.178Z,19.81
2023-04-11T21:38:42.962Z,19.73
2023-04-11T21:43:46.473Z,19.68
2023-04-11T21:48:50.208Z,19.67
2023-04-11T21:53:53.462Z,19.57
2023-04-11T21:58:55.752Z,19.44
2023-04-11T22:03:59.568Z,19.35
2023-04-11T22:09:05.704Z,19.25
2023-04-11T22:14:17.164Z,18.94
2023-04-11T22:19:19.633Z,19.01
2023-04-11T22:24:31.188Z,18.93
2023-04-11T22:29:39.335Z,18.80
2023-04-11T22:34:42.542Z,18.66
2023-04-11T22:39:44.558Z,18.52
2023-04-11T22:44:46.532Z,18.43
2023-04-11T22:49:48.576Z,18.29
2023-04-11T22:54:52.585Z,18.01
2023-04-11T22:59:54.949Z,18.06
2023-04-11T23:04:57.812Z,18.04
2023-04-11T23:10:02.609Z,17.96
2023-04-11T23:15:05.209Z,17.89
2023-04-11T23:20:14.485Z,17.86
2023-04-11T23:25:17.134Z,17.79
2023-04-11T23:30:20.482Z,17.69
2023-04-11T23:35:23.686Z,17.69
2023-04-11T23:40:26.687Z,17.57
2023-04-11T23:45:28.729Z,17.42
2023-04-11T23:50:30.676Z,17.31
2023-04-11T23:55:33.074Z,17.19
